createdAt,value
2022-09-06T00:00:21.798Z,12.63
2022-09-06T00:03:05.521Z,12.50
2022-09-06T00:05:48.669Z,12.40
2022-09-06T00:08:31.704Z,12.90
2022-09-06T00:11:15.716Z,12.03
2022-09-06T00:14:00.201Z,11.50
2022-09-06T00:16:43.265Z,11.33
2022-09-06T00:19:26.295Z,14.60
2022-09-06T00:22:09.706Z,11.37
2022-09-06T00:24:52.764Z,12.27
2022-09-06T00:27:36.391Z,12.97
2022-09-06T00:30:20.799Z,10.97
2022-09-06T00:33:03.954Z,11.40
2022-09-06T00:35:47.482Z,11.90
2022-09-06T00:38:31.493Z,12.00
2022-09-06T00:41:16.118Z,11.63
2022-09-06T00:43:59.222Z,12.20
2022-09-06T00:46:46.439Z,11.97
2022-09-06T00:49:32.979Z,12.90
2022-09-06T00:52:19.044Z,12.80
2022-09-06T00:55:02.519Z,11.50
2022-09-06T00:57:46.607Z,12.07
2022-09-06T01:00:29.731Z,12.00
2022-09-06T01:03:15.354Z,11.87
2022-09-06T01:06:07.172Z,12.63
2022-09-06T01:09:02.994Z,11.80
2022-09-06T01:12:00.041Z,12.33
2022-09-06T01:14:56.230Z,12.30
2022-09-06T01:17:51.932Z,13.97
2022-09-06T01:21:03.526Z,13.07
2022-09-06T01:24:25.397Z,12.97
2022-09-06T01:27:29.936Z,13.23
2022-09-06T01:30:15.768Z,12.13
2022-09-06T01:33:07.493Z,12.67
2022-09-06T01:35:55.600Z,13.13
2022-09-06T01:38:38.717Z,14.00
2022-09-06T01:41:21.775Z,15.27
2022-09-06T01:44:06.309Z,15.80
2022-09-06T01:46:57.725Z,12.43
2022-09-06T01:49:55.981Z,13.23
2022-09-06T01:52:51.665Z,12.13
2022-09-06T01:55:45.133Z,12.57
2022-09-06T01:58:54.667Z,12.23
2022-09-06T02:01:50.544Z,13.20
2022-09-06T02:04:41.437Z,14.80
2022-09-06T02:07:27.385Z,13.43
2022-09-06T02:10:15.024Z,13.17
2022-09-06T02:13:02.369Z,12.10
2022-09-06T02:15:52.493Z,13.40
2022-09-06T02:18:41.493Z,13.00
2022-09-06T02:21:29.621Z,12.50
2022-09-06T02:24:18.535Z,12.40
2022-09-06T02:27:01.851Z,12.90
2022-09-06T02:29:44.997Z,13.20
2022-09-06T02:32:30.208Z,13.63
2022-09-06T02:35:17.245Z,13.60
2022-09-06T02:38:00.667Z,12.33
2022-09-06T02:40:44.488Z,12.60
2022-09-06T02:43:27.585Z,12.57
2022-09-06T02:46:10.812Z,14.57
2022-09-06T02:48:53.899Z,12.83
2022-09-06T02:51:40.127Z,12.87
2022-09-06T02:54:23.155Z,13.03
2022-09-06T02:57:06.263Z,13.50
2022-09-06T02:59:49.349Z,13.50
2022-09-06T03:02:32.510Z,13.43
2022-09-06T03:05:15.755Z,12.47
2022-09-06T03:08:00.778Z,12.47
2022-09-06T03:10:50.533Z,11.80
2022-09-06T03:13:33.583Z,11.87
2022-09-06T03:16:16.694Z,12.07
2022-09-06T03:18:59.827Z,11.87
2022-09-06T03:21:42.948Z,11.53
2022-09-06T03:24:27.432Z,12.03
2022-09-06T03:27:10.495Z,11.73
2022-09-06T03:29:53.616Z,13.07
2022-09-06T03:32:36.813Z,12.93
2022-09-06T03:35:19.887Z,13.27
2022-09-06T03:38:03.168Z,13.00
2022-09-06T03:40:49.237Z,13.20
2022-09-06T03:43:32.415Z,12.63
2022-09-06T03:46:15.590Z,13.47
2022-09-06T03:48:58.682Z,12.70
2022-09-06T03:51:41.803Z,13.13
2022-09-06T03:54:24.883Z,15.07
2022-09-06T03:57:09.332Z,15.17
2022-09-06T03:59:52.370Z,13.60
2022-09-06T04:02:35.669Z,13.23
2022-09-06T04:05:18.951Z,13.73
2022-09-06T04:08:02.469Z,13.70
2022-09-06T04:10:45.554Z,13.47
2022-09-06T04:13:30.641Z,13.60
2022-09-06T04:16:13.958Z,14.23
2022-09-06T04:19:00.125Z,12.43
2022-09-06T04:21:43.545Z,13.47
2022-09-06T04:24:26.622Z,13.80
2022-09-06T04:27:09.742Z,14.63
2022-09-06T04:29:54.727Z,14.87
2022-09-06T04:32:38.142Z,13.40
2022-09-06T04:35:21.252Z,14.80
2022-09-06T04:38:05.745Z,14.67
2022-09-06T04:40:49.042Z,14.53
2022-09-06T04:43:32.179Z,14.93
2022-09-06T04:46:22.825Z,15.70
2022-09-06T04:49:05.945Z,15.30
2022-09-06T04:51:48.998Z,15.30
2022-09-06T04:54:32.124Z,15.57
2022-09-06T04:57:18.060Z,15.77
2022-09-06T05:00:01.260Z,16.07
2022-09-06T05:02:46.259Z,16.27
2022-09-06T05:05:29.338Z,16.03
2022-09-06T05:08:12.394Z,15.93
2022-09-06T05:10:55.434Z,16.23
2022-09-06T05:13:39.012Z,16.10
2022-09-06T05:16:22.169Z,17.67
2022-09-06T05:19:06.722Z,17.53
2022-09-06T05:21:49.775Z,18.50
2022-09-06T05:24:32.785Z,19.23
2022-09-06T05:27:15.849Z,18.20
2022-09-06T05:29:58.890Z,19.13
2022-09-06T05:32:42.011Z,18.80
2022-09-06T05:35:26.486Z,19.23
2022-09-06T05:38:09.588Z,18.87
2022-09-06T05:40:53.996Z,18.20
2022-09-06T05:43:37.787Z,18.03
2022-09-06T05:46:22.053Z,17.40
2022-09-06T05:49:08.086Z,18.07
2022-09-06T05:51:53.472Z,18.00
2022-09-06T05:54:36.544Z,17.00
2022-09-06T05:57:19.672Z,16.63
2022-09-06T06:00:02.948Z,17.40
2022-09-06T06:02:48.939Z,16.27
2022-09-06T06:05:32.045Z,14.83
2022-09-06T06:08:16.450Z,15.50
2022-09-06T06:11:01.450Z,17.03
2022-09-06T06:13:45.434Z,14.90
2022-09-06T06:16:29.135Z,13.63
2022-09-06T06:19:12.448Z,17.97
2022-09-06T06:21:56.322Z,13.77
2022-09-06T06:24:40.868Z,13.67
2022-09-06T06:27:23.944Z,15.10
2022-09-06T06:30:08.028Z,13.40
2022-09-06T06:32:51.079Z,12.13
2022-09-06T06:35:40.049Z,11.73
2022-09-06T06:38:23.422Z,11.87
2022-09-06T06:41:09.561Z,11.77
2022-09-06T06:43:53.825Z,11.13
2022-09-06T06:46:41.761Z,11.73
2022-09-06T06:49:26.742Z,11.60
2022-09-06T06:52:09.762Z,10.90
2022-09-06T06:54:52.851Z,11.03
2022-09-06T06:57:37.286Z,11.00
2022-09-06T07:00:22.298Z,10.17
2022-09-06T07:03:08.056Z,9.97
2022-09-06T07:08:54.104Z,10.70
2022-09-06T07:11:37.129Z,10.77
2022-09-06T07:14:21.760Z,9.93
2022-09-06T07:17:07.459Z,9.77
2022-09-06T07:26:06.268Z,10.17
2022-09-06T07:28:49.659Z,9.70
2022-09-06T07:34:39.694Z,9.10
2022-09-06T07:37:22.775Z,8.40
2022-09-06T07:40:06.505Z,9.10
2022-09-06T07:42:49.715Z,9.57
2022-09-06T07:45:32.874Z,8.33
2022-09-06T07:48:17.335Z,8.40
2022-09-06T07:51:08.506Z,9.67
2022-09-06T07:54:06.906Z,7.63
2022-09-06T07:56:56.219Z,8.10
2022-09-06T07:59:42.858Z,9.07
2022-09-06T08:02:26.140Z,8.37
2022-09-06T08:11:17.505Z,7.57
2022-09-06T08:14:02.365Z,8.20
2022-09-06T08:16:45.580Z,7.70
2022-09-06T08:19:28.617Z,7.50
2022-09-06T08:22:13.194Z,7.20
2022-09-06T08:24:56.234Z,8.30
2022-09-06T08:27:39.380Z,6.80
2022-09-06T08:30:22.556Z,7.80
2022-09-06T08:33:05.879Z,6.90
2022-09-06T08:35:56.807Z,7.23
2022-09-06T08:38:41.754Z,7.60
2022-09-06T08:41:27.571Z,6.90
2022-09-06T08:47:18.603Z,6.27
2022-09-06T08:50:05.548Z,6.80
2022-09-06T08:53:17.288Z,6.47
2022-09-06T08:56:15.389Z,6.47
2022-09-06T08:59:06.773Z,6.30
2022-09-06T09:01:58.681Z,5.72
2022-09-06T09:04:45.557Z,6.03
2022-09-06T09:07:41.022Z,5.68
2022-09-06T09:10:30.264Z,5.72
2022-09-06T09:13:22.365Z,5.63
2022-09-06T09:16:09.247Z,5.85
2022-09-06T09:18:55.401Z,5.80
2022-09-06T09:21:40.134Z,5.72
2022-09-06T09:24:24.424Z,5.28
2022-09-06T09:27:11.313Z,5.63
2022-09-06T09:33:23.377Z,5.80
2022-09-06T09:36:10.875Z,6.00
2022-09-06T09:38:57.065Z,6.15
2022-09-06T09:41:43.839Z,6.03
2022-09-06T09:44:29.953Z,6.47
2022-09-06T09:47:27.961Z,5.80
2022-09-06T09:50:25.395Z,5.68
2022-09-06T09:53:11.352Z,5.57
2022-09-06T09:55:58.809Z,5.10
2022-09-06T09:58:41.926Z,5.22
2022-09-06T10:01:29.239Z,5.50
2022-09-06T10:07:25.993Z,4.93
2022-09-06T10:10:14.350Z,5.47
2022-09-06T10:13:09.339Z,5.50
2022-09-06T10:15:55.272Z,5.47
2022-09-06T10:18:40.511Z,5.70
2022-09-06T10:21:28.311Z,5.30
2022-09-06T10:24:27.819Z,5.97
2022-09-06T10:27:20.255Z,4.97
2022-09-06T10:30:06.353Z,4.88
2022-09-06T10:32:58.566Z,3.90
2022-09-06T10:35:42.993Z,4.43
2022-09-06T10:38:38.771Z,4.30
2022-09-06T10:41:33.296Z,3.90
2022-09-06T10:44:31.679Z,4.25
2022-09-06T10:47:16.434Z,4.15
2022-09-06T10:50:02.883Z,3.72
2022-09-06T10:52:51.965Z,3.70
2022-09-06T10:55:41.143Z,4.30
2022-09-06T10:58:29.812Z,4.03
2022-09-06T11:01:24.032Z,4.10
2022-09-06T11:04:12.842Z,3.97
2022-09-06T11:07:02.274Z,3.75
2022-09-06T11:09:49.606Z,3.70
2022-09-06T11:12:41.570Z,4.18
2022-09-06T11:15:26.658Z,4.30
2022-09-06T11:18:16.384Z,5.30
2022-09-06T11:21:19.641Z,4.80
2022-09-06T11:24:12.598Z,4.80
2022-09-06T11:27:05.787Z,5.10
2022-09-06T11:29:56.408Z,5.03
2022-09-06T11:32:43.457Z,6.03
2022-09-06T11:35:32.140Z,9.07
2022-09-06T11:38:26.150Z,6.07
2022-09-06T11:41:17.336Z,6.07
2022-09-06T11:44:00.932Z,6.33
2022-09-06T11:47:02.295Z,6.30
2022-09-06T11:49:45.484Z,6.27
2022-09-06T11:53:14.890Z,6.27
2022-09-06T11:56:13.913Z,5.90
2022-09-06T11:59:01.753Z,7.83
2022-09-06T12:02:02.689Z,5.63
2022-09-06T12:05:26.110Z,5.17
2022-09-06T12:08:33.239Z,6.13
2022-09-06T12:11:38.311Z,6.93
2022-09-06T12:14:31.214Z,6.43
2022-09-06T12:17:25.419Z,6.10
2022-09-06T12:20:08.844Z,7.43
2022-09-06T12:22:56.639Z,6.47
2022-09-06T12:25:59.209Z,7.37
2022-09-06T12:28:48.498Z,7.43
2022-09-06T12:31:38.232Z,6.10
2022-09-06T12:34:25.362Z,6.20
2022-09-06T12:37:11.180Z,6.03
2022-09-06T12:39:59.578Z,7.50
2022-09-06T12:42:45.524Z,6.77
2022-09-06T12:45:28.639Z,6.90
2022-09-06T12:48:16.647Z,7.10
2022-09-06T12:51:05.456Z,7.87
2022-09-06T12:53:52.165Z,7.67
2022-09-06T12:56:35.974Z,19.97
2022-09-06T12:59:21.501Z,16.90
2022-09-06T13:02:08.641Z,8.20
2022-09-06T13:04:56.484Z,6.00
2022-09-06T13:07:45.071Z,11.90
2022-09-06T13:10:29.228Z,6.60
2022-09-06T13:13:18.691Z,6.60
2022-09-06T13:16:02.156Z,5.80
2022-09-06T13:18:45.235Z,5.03
2022-09-06T13:21:34.008Z,5.20
2022-09-06T13:24:24.438Z,29.67
2022-09-06T13:27:26.964Z,5.80
2022-09-06T13:30:11.925Z,6.70
2022-09-06T13:32:55.003Z,6.57
2022-09-06T13:35:39.532Z,7.10
2022-09-06T13:38:34.976Z,7.17
2022-09-06T13:41:41.216Z,6.73
2022-09-06T13:44:31.182Z,5.60
2022-09-06T13:47:14.267Z,5.90
2022-09-06T13:49:57.356Z,5.93
2022-09-06T13:52:40.373Z,7.83
2022-09-06T13:55:25.918Z,5.97
2022-09-06T13:58:10.364Z,6.03
2022-09-06T14:00:54.691Z,6.10
2022-09-06T14:03:39.271Z,5.40
2022-09-06T14:06:22.674Z,5.63
2022-09-06T14:09:07.714Z,6.60
2022-09-06T14:12:34.400Z,6.73
2022-09-06T14:15:19.050Z,6.43
2022-09-06T14:18:02.260Z,6.27
2022-09-06T14:20:53.379Z,6.17
2022-09-06T14:23:36.606Z,6.77
2022-09-06T14:26:21.202Z,6.83
2022-09-06T14:29:05.782Z,7.33
2022-09-06T14:31:50.306Z,6.70
2022-09-06T14:34:33.358Z,11.07
2022-09-06T14:37:16.745Z,15.23
2022-09-06T14:40:26.722Z,8.53
2022-09-06T14:43:09.950Z,7.17
2022-09-06T14:45:53.089Z,8.00
2022-09-06T14:48:41.969Z,7.50
2022-09-06T14:51:25.514Z,8.50
2022-09-06T14:54:11.691Z,10.20
2022-09-06T14:56:54.850Z,10.10
2022-09-06T14:59:38.281Z,6.40
2022-09-06T15:02:21.507Z,7.30
2022-09-06T15:05:06.779Z,6.10
2022-09-06T15:07:49.894Z,6.10
2022-09-06T15:10:33.039Z,6.50
2022-09-06T15:13:17.050Z,7.00
2022-09-06T15:16:00.387Z,7.13
2022-09-06T15:18:43.611Z,6.90
2022-09-06T15:21:28.142Z,8.87
2022-09-06T15:24:14.010Z,7.03
2022-09-06T15:26:57.616Z,7.67
2022-09-06T15:29:41.288Z,6.63
2022-09-06T15:32:24.715Z,8.33
2022-09-06T15:35:09.116Z,9.37
2022-09-06T15:37:53.666Z,7.50
2022-09-06T15:40:36.800Z,8.10
2022-09-06T15:43:20.150Z,8.07
2022-09-06T15:46:03.462Z,8.00
2022-09-06T15:48:48.179Z,6.90
2022-09-06T15:51:31.293Z,8.43
2022-09-06T15:54:18.382Z,8.63
2022-09-06T15:57:00.534Z,9.50
2022-09-06T15:59:43.722Z,8.30
2022-09-06T16:02:27.095Z,8.43
2022-09-06T16:05:10.796Z,8.60
2022-09-06T16:07:53.993Z,7.93
2022-09-06T16:10:40.893Z,9.10
2022-09-06T16:13:26.101Z,9.93
2022-09-06T16:16:11.192Z,8.00
2022-09-06T16:18:54.288Z,7.50
2022-09-06T16:21:39.717Z,8.67
2022-09-06T16:24:23.654Z,11.50
2022-09-06T16:27:08.224Z,7.63
2022-09-06T16:29:52.668Z,7.70
2022-09-06T16:32:36.084Z,9.53
2022-09-06T16:35:19.518Z,7.77
2022-09-06T16:38:02.666Z,8.30
2022-09-06T16:40:46.608Z,8.10
2022-09-06T16:43:34.871Z,7.93
2022-09-06T16:46:18.222Z,8.20
2022-09-06T16:49:03.100Z,9.07
2022-09-06T16:51:47.604Z,7.70
2022-09-06T16:54:31.978Z,9.20
2022-09-06T16:57:15.574Z,12.17
2022-09-06T17:00:00.446Z,8.40
2022-09-06T17:02:47.127Z,7.80
2022-09-06T17:05:31.047Z,9.10
2022-09-06T17:08:17.127Z,8.90
2022-09-06T17:11:06.986Z,8.30
2022-09-06T17:13:51.978Z,9.43
2022-09-06T17:16:53.930Z,13.67
2022-09-06T17:19:39.499Z,8.17
2022-09-06T17:22:22.758Z,9.17
2022-09-06T17:25:07.066Z,9.93
2022-09-06T17:27:50.725Z,11.43
2022-09-06T17:30:34.572Z,12.17
2022-09-06T17:33:20.146Z,13.77
2022-09-06T17:36:08.012Z,11.87
2022-09-06T17:38:53.704Z,10.57
2022-09-06T17:41:39.485Z,11.70
2022-09-06T17:44:25.542Z,11.90
2022-09-06T17:47:12.881Z,12.90
2022-09-06T17:49:57.947Z,12.97
2022-09-06T17:52:41.050Z,11.10
2022-09-06T17:55:24.258Z,13.83
2022-09-06T17:58:08.484Z,12.87
2022-09-06T18:01:06.338Z,10.27
2022-09-06T18:03:50.238Z,9.50
2022-09-06T18:06:36.311Z,9.00
2022-09-06T18:09:19.483Z,8.93
2022-09-06T18:12:03.050Z,8.80
2022-09-06T18:14:46.182Z,8.93
2022-09-06T18:17:30.711Z,9.10
2022-09-06T18:20:14.110Z,8.53
2022-09-06T18:22:59.543Z,9.53
2022-09-06T18:25:43.024Z,9.60
2022-09-06T18:28:31.369Z,8.80
2022-09-06T18:31:16.334Z,10.87
2022-09-06T18:34:00.591Z,11.20
2022-09-06T18:36:44.446Z,10.43
2022-09-06T18:39:29.070Z,10.93
2022-09-06T18:42:12.465Z,10.80
2022-09-06T18:44:56.968Z,9.83
2022-09-06T18:47:40.043Z,8.87
2022-09-06T18:50:23.195Z,10.50
2022-09-06T18:53:06.736Z,9.83
2022-09-06T18:55:53.327Z,11.33
2022-09-06T18:58:36.726Z,12.40
2022-09-06T19:01:21.054Z,10.43
2022-09-06T19:04:05.502Z,10.10
2022-09-06T19:06:48.914Z,9.73
2022-09-06T19:09:32.219Z,10.43
2022-09-06T19:12:16.760Z,9.80
2022-09-06T19:14:59.863Z,9.93
2022-09-06T19:17:43.059Z,9.77
2022-09-06T19:20:26.163Z,10.47
2022-09-06T19:23:09.286Z,11.27
2022-09-06T19:25:57.845Z,10.30
2022-09-06T19:28:42.604Z,10.60
2022-09-06T19:31:27.320Z,10.17
2022-09-06T19:34:12.243Z,11.50
2022-09-06T19:36:57.314Z,11.27
2022-09-06T19:39:40.537Z,11.83
2022-09-06T19:42:23.907Z,10.63
2022-09-06T19:45:09.789Z,10.13
2022-09-06T19:47:52.955Z,9.50
2022-09-06T19:50:37.806Z,10.70
2022-09-06T19:53:20.883Z,11.13
2022-09-06T19:56:11.070Z,11.87
2022-09-06T19:58:55.731Z,11.53
2022-09-06T20:01:41.652Z,10.13
2022-09-06T20:04:25.079Z,10.40
2022-09-06T20:07:08.287Z,9.33
2022-09-06T20:09:52.607Z,10.23
2022-09-06T20:12:36.408Z,9.70
2022-09-06T20:15:20.024Z,10.30
2022-09-06T20:18:04.806Z,10.10
2022-09-06T20:20:47.997Z,10.27
2022-09-06T20:23:32.497Z,10.43
2022-09-06T20:26:15.627Z,10.00
2022-09-06T20:29:00.711Z,11.27
2022-09-06T20:31:43.845Z,10.57
2022-09-06T20:34:29.047Z,10.00
2022-09-06T20:37:12.178Z,10.50
2022-09-06T20:39:55.673Z,11.20
2022-09-06T20:42:42.261Z,11.10
2022-09-06T20:45:25.920Z,10.93
2022-09-06T20:48:09.057Z,10.60
2022-09-06T20:51:01.946Z,10.97
2022-09-06T20:53:45.127Z,10.43
2022-09-06T20:56:29.838Z,11.23
2022-09-06T20:59:14.728Z,10.70
2022-09-06T21:01:58.657Z,10.83
2022-09-06T21:04:42.062Z,11.23
2022-09-06T21:07:26.607Z,10.60
2022-09-06T21:10:10.114Z,11.27
2022-09-06T21:12:53.257Z,11.67
2022-09-06T21:15:36.991Z,11.67
2022-09-06T21:18:20.159Z,11.67
2022-09-06T21:21:04.752Z,12.13
2022-09-06T21:23:49.943Z,13.27
2022-09-06T21:26:33.759Z,12.83
2022-09-06T21:29:16.929Z,12.47
2022-09-06T21:32:00.170Z,11.90
2022-09-06T21:34:43.454Z,11.57
2022-09-06T21:37:26.580Z,11.00
2022-09-06T21:40:11.811Z,11.80
2022-09-06T21:42:54.963Z,11.63
2022-09-06T21:45:39.326Z,11.83
2022-09-06T21:48:22.490Z,11.83
2022-09-06T21:51:07.872Z,11.60
2022-09-06T21:53:52.635Z,12.20
2022-09-06T21:56:38.648Z,11.50
2022-09-06T21:59:21.943Z,13.13
2022-09-06T22:02:05.456Z,11.77
2022-09-06T22:04:50.445Z,12.93
2022-09-06T22:07:35.510Z,13.07
2022-09-06T22:10:19.808Z,13.40
2022-09-06T22:13:04.450Z,12.60
2022-09-06T22:15:47.780Z,11.70
2022-09-06T22:18:31.218Z,11.10
2022-09-06T22:21:18.598Z,12.30
2022-09-06T22:24:03.549Z,11.27
2022-09-06T22:26:46.771Z,10.67
2022-09-06T22:29:31.526Z,11.33
2022-09-06T22:32:14.952Z,10.50
2022-09-06T22:34:58.809Z,11.20
2022-09-06T22:37:44.337Z,11.53
2022-09-06T22:40:27.536Z,13.30
2022-09-06T22:43:10.792Z,12.63
2022-09-06T22:45:55.416Z,12.80
2022-09-06T22:48:39.229Z,11.53
2022-09-06T22:51:22.454Z,11.50
2022-09-06T22:54:05.913Z,11.57
2022-09-06T22:56:49.153Z,11.53
2022-09-06T22:59:32.321Z,10.97
2022-09-06T23:02:16.965Z,11.77
2022-09-06T23:05:00.157Z,11.27
2022-09-06T23:07:43.727Z,12.33
2022-09-06T23:10:27.553Z,11.33
2022-09-06T23:13:11.237Z,11.30
2022-09-06T23:15:54.400Z,12.50
2022-09-06T23:18:39.056Z,11.53
2022-09-06T23:21:24.310Z,11.90
2022-09-06T23:24:07.608Z,12.20
2022-09-06T23:26:50.774Z,12.43
2022-09-06T23:29:35.080Z,13.60
2022-09-06T23:32:18.226Z,12.20
2022-09-06T23:35:03.087Z,12.33
2022-09-06T23:37:46.998Z,12.87
2022-09-06T23:40:30.257Z,13.00
2022-09-06T23:43:13.572Z,12.90
2022-09-06T23:45:56.806Z,12.33
2022-09-06T23:48:40.892Z,12.60
2022-09-06T23:51:25.747Z,13.17
2022-09-06T23:54:09.225Z,13.57
2022-09-06T23:56:52.365Z,13.03
2022-09-06T23:59:36.690Z,13.37
